Home > Products > Valid Products > TAF

000
FTPQ31 PGUM 302300
TAFPQ
TAF
PGUM 302336Z 3100/0106 13011KT P6SM VCSH SCT020 SCT050 BKN120=



000
FTPQ31 PGUM 301700
TAFPQ
TAF
PGUM 301720Z 3018/3124 13010KT P6SM VCSH FEW017 SCT050 BKN120=



000
FTPQ31 PGUM 301100
TAFPQ
TAF
PGUM 301130Z 3012/3118 11010KT P6SM -RA FEW014 SCT025 BKN080
      TEMPO 3013/3016 5SM RA SCT015 BKN030 OVC080
     FM301800 13010KT P6SM VCSH FEW017 SCT050 BKN120=



000
FTPQ31 PGUM 300500
TAFPQ
TAF
PGUM 300531Z 3006/3112 07011KT 6SM -SHRA SCT014 BKN030 BKN080
      TEMPO 3006/3009 4SM SHRA BKN015 OVC060
     FM301200 11010KT P6SM VCSH FEW016 SCT060 BKN120=



000
FTPQ31 PGUM 300400 AAA
TAFPQ
TAF AMD
PGUM 300415Z 3004/3106 10011KT 6SM -SHRA SCT014 BKN030 BKN080
      TEMPO 3004/3008 4SM SHRA BKN015 OVC060
     FM301200 11010KT P6SM VCSH FEW016 SCT060 BKN120=



000
FTPQ31 PGUM 300400 AAA
TAFPQ
TAF AMD
PGUM 300415Z 3004/3106 10011KT 6SM -SHRA SCT014 BKN030 BKN080
      TEMPO 3004/3008 4SM SHRA BKN015 OVC060
     FM301200 11010KT P6SM VCSH FEW016 SCT060 BKN120=



000
FTPQ31 PGUM 292300
TAFPQ
TAF
PGUM 292336Z 3000/3106 12010G18KT P6SM SCT016 BKN040 BKN120
     FM300800 10011KT 6SM -SHRA SCT014 BKN030 BKN080
      TEMPO 3008/3012 4SM SHRA BKN015 OVC060
     FM301800 11010KT P6SM VCSH FEW016 SCT060 BKN120=



000
FTPQ31 PGUM 291700
TAFPQ
TAF
PGUM 291721Z 2918/3024 11008KT P6SM VCSH SCT016 SCT040 BKN100
     FM292200 13013KT P6SM VCSH SCT016 SCT040 BKN100=



000
FTPQ31 PGUM 291100
TAFPQ
TAF
PGUM 291131Z 2912/3018 12006KT P6SM VCSH SCT016 SCT050 BKN100=



000
FTPQ31 PGUM 290500
TAFPQ
TAF
PGUM 290522Z 2906/3012 12008KT 6SM -RA SCT016 SCT040 BKN080
      TEMPO 2906/2910 15009KT 4SM SHRA SCT015 BKN025 OVC060
     FM291200 15006KT P6SM VCSH FEW016 SCT050 BKN100=



000
FTPQ31 PGUM 290300 AAB
TAFPQ
TAF AMD
PGUM 290305Z 2903/3006 12005KT 6SM -RA FEW018 SCT040 BKN080
      TEMPO 2903/2906 15008KT 4SM SHRA SCT017 BKN030 OVC060
     FM290700 15006KT P6SM VCSH FEW016 SCT050 BKN120=



000
FTPQ31 PGUM 282300
TAFPQ
TAF
PGUM 282336Z 2900/3006 12004KT 6SM -RA SCT017 BKN040 BKN100
      TEMPO 2900/2903 VRB07KT 2SM TSRA SCT010CB BKN018 OVC060
     FM290700 15006KT P6SM VCSH FEW016 SCT050 BKN120=



000
FTPQ31 PGUM 282200 AAB
TAFPQ
TAF AMD
PGUM 282215Z 2822/2924 10005KT 6SM -RA SCT017 BKN040 BKN100
      TEMPO 2822/2824 VRB05KT 2SM +SHRA SCT010 BKN020 OVC060=



000
FTPQ31 PGUM 281700
TAFPQ
TAF
PGUM 281720Z 2818/2924 06008KT P6SM VCSH FEW017 SCT050 BKN100
      TEMPO 2818/2822 -SHRA SCT014 BKN025 OVC060=



000
FTPQ31 PGUM 281100
TAFPQ
TAF
PGUM 281122Z 2812/2918 06008KT P6SM VCSH FEW017 SCT050 BKN100
      TEMPO 2812/2816 VRB12G20KT 3SM SHRA SCT017 BKN025 OVC060=



000
FTPQ31 PGUM 280500
TAFPQ
TAF
PGUM 280520Z 2806/2912 VRB07KT P6SM VCSH FEW017 FEW040 BKN100
     FM280800 07008KT P6SM VCSH FEW017 SCT050 BKN100=



000
FTPQ31 PGUM 280400 AAA
TAFPQ
TAF AMD
PGUM 280441Z 2805/2906 VRB07KT P6SM VCSH FEW017 FEW040 BKN100
     FM280800 07008KT P6SM VCSH SCT017 SCT050 BKN100=



000
FTPQ31 PGUM 280400 AAA
TAFPQ
TAF AMD
PGUM 280441Z 2805/2906 VRB07KT P6SM VCSH FEW017 FEW040 BKN100
     FM280800 07008KT P6SM VCSH SCT017 SCT050 BKN100=



    US Dept of Commerce
    National Oceanic and Atmospheric Administration
    National Weather Service
    1325 East West Highway
    Silver Spring, MD 20910
    Page Author: NWS Internet Services Team
Disclaimer
Information Quality
Credits
Glossary
Privacy Policy
Freedom of Information Act (FOIA)
About Us
Career Opportunities